This is the latest recevied weather packets stored in our database for station/object PY2VE-13. If no packets are shown the sender has not sent any weather packets the latest 10 day(s).
| Time | Temp. | Humidity | Pressure | Rain* | Wind** | Luminosity | Snow |
|---|---|---|---|---|---|---|---|
| 1777509218 | 26.11° C | 58% | 1019.7 hPa | - | - | - | - |
| 1777508318 | 25.56° C | 59% | 1019.6 hPa | - | - | - | - |
| 1777507418 | 25° C | 61% | 1019.6 hPa | - | - | - | - |
| 1777506518 | 25.56° C | 60% | 1019.6 hPa | - | - | - | - |
| 1777505623 | 23.89° C | 66% | 1020 hPa | - | - | - | - |
| 1777504718 | 24.44° C | 66% | 1019.9 hPa | - | - | - | - |
| 1777503818 | 23.89° C | 69% | 1019.9 hPa | - | - | - | - |
| 1777502918 | 24.44° C | 69% | 1019.8 hPa | - | - | - | - |
| 1777502018 | 25.56° C | 68% | 1019.4 hPa | - | - | - | - |
| 1777501119 | 25.56° C | 69% | 1019.4 hPa | - | - | - | - |
| 1777500218 | 26.67° C | 66% | 1019 hPa | - | - | - | - |
| 1777499318 | 24.44° C | 75% | 1019.2 hPa | - | - | - | - |
| 1777498418 | 26.11° C | 69% | 1019.2 hPa | - | - | - | - |
| 1777497518 | 28.33° C | 57% | 1017.9 hPa | - | - | - | - |
| 1777496618 | 26.11° C | 63% | 1018.2 hPa | - | - | - | - |
| 1777495718 | 27.22° C | 59% | 1018 hPa | - | - | - | - |
| 1777494818 | 26.11° C | 57% | 1018.5 hPa | - | - | - | - |
| 1777493918 | 28.89° C | 54% | 1017.3 hPa | - | - | - | - |
| 1777493018 | 30.56° C | 47% | 1016.9 hPa | - | - | - | - |
| 1777492117 | 31.11° C | 48% | 1016.5 hPa | - | - | - | - |
| 1777491218 | 30.56° C | 50% | 1016.5 hPa | - | - | - | - |
| 1777490318 | 29.44° C | 55% | 1016.8 hPa | - | - | - | - |
| 1777489418 | 31.67° C | 47% | 1016.1 hPa | - | - | - | - |
| 1777488518 | 31.11° C | 43% | 1016 hPa | - | - | - | - |
| 1777487617 | 31.11° C | 42% | 1015.9 hPa | - | - | - | - |
* Rain since midnight (hover to see other rain measurements)
** Current wind speed in m/s (hover to see current wind gust speed)